sensor_id;sensor_type;location;lat;lon;timestamp;P1;durP1;ratioP1;P2;durP2;ratioP2
10805;SDS011;5455;53.224;6.000;2023-07-13T00:01:54;4.83;;;1.10;;
10805;SDS011;5455;53.224;6.000;2023-07-13T00:04:22;9.37;;;1.60;;
10805;SDS011;5455;53.224;6.000;2023-07-13T00:06:52;7.13;;;1.47;;
10805;SDS011;5455;53.224;6.000;2023-07-13T00:09:20;4.53;;;1.20;;
10805;SDS011;5455;53.224;6.000;2023-07-13T00:11:52;4.73;;;1.07;;
10805;SDS011;5455;53.224;6.000;2023-07-13T00:14:21;4.47;;;1.37;;
10805;SDS011;5455;53.224;6.000;2023-07-13T00:16:49;7.23;;;1.30;;
10805;SDS011;5455;53.224;6.000;2023-07-13T00:19:16;5.97;;;0.97;;
10805;SDS011;5455;53.224;6.000;2023-07-13T00:21:44;5.73;;;1.20;;
10805;SDS011;5455;53.224;6.000;2023-07-13T00:24:12;1.60;;;0.60;;
10805;SDS011;5455;53.224;6.000;2023-07-13T00:26:51;6.60;;;1.03;;
10805;SDS011;5455;53.224;6.000;2023-07-13T00:29:18;3.13;;;0.80;;
10805;SDS011;5455;53.224;6.000;2023-07-13T00:31:45;3.80;;;0.90;;
10805;SDS011;5455;53.224;6.000;2023-07-13T00:34:12;3.70;;;0.67;;
10805;SDS011;5455;53.224;6.000;2023-07-13T00:36:40;3.10;;;0.83;;
10805;SDS011;5455;53.224;6.000;2023-07-13T00:39:07;3.47;;;0.73;;
10805;SDS011;5455;53.224;6.000;2023-07-13T00:41:34;1.20;;;0.43;;
10805;SDS011;5455;53.224;6.000;2023-07-13T00:44:02;3.97;;;0.70;;
10805;SDS011;5455;53.224;6.000;2023-07-13T00:46:32;4.57;;;0.83;;
10805;SDS011;5455;53.224;6.000;2023-07-13T00:49:05;2.47;;;0.50;;
10805;SDS011;5455;53.224;6.000;2023-07-13T00:51:45;2.90;;;0.50;;
10805;SDS011;5455;53.224;6.000;2023-07-13T00:54:19;4.37;;;0.70;;
10805;SDS011;5455;53.224;6.000;2023-07-13T00:56:59;2.40;;;0.87;;
10805;SDS011;5455;53.224;6.000;2023-07-13T00:59:30;1.93;;;0.63;;
10805;SDS011;5455;53.224;6.000;2023-07-13T01:01:58;2.10;;;0.50;;
10805;SDS011;5455;53.224;6.000;2023-07-13T01:04:27;2.60;;;0.53;;
10805;SDS011;5455;53.224;6.000;2023-07-13T01:06:54;1.97;;;0.40;;
10805;SDS011;5455;53.224;6.000;2023-07-13T01:09:23;4.13;;;0.70;;
10805;SDS011;5455;53.224;6.000;2023-07-13T01:11:50;3.57;;;0.40;;
10805;SDS011;5455;53.224;6.000;2023-07-13T01:14:17;1.93;;;0.50;;
10805;SDS011;5455;53.224;6.000;2023-07-13T01:16:44;1.43;;;0.60;;
10805;SDS011;5455;53.224;6.000;2023-07-13T01:21:52;2.70;;;0.53;;
10805;SDS011;5455;53.224;6.000;2023-07-13T01:24:19;1.03;;;0.30;;
10805;SDS011;5455;53.224;6.000;2023-07-13T01:26:48;2.10;;;0.30;;
10805;SDS011;5455;53.224;6.000;2023-07-13T01:29:15;1.20;;;0.30;;
10805;SDS011;5455;53.224;6.000;2023-07-13T01:31:42;1.37;;;0.40;;
10805;SDS011;5455;53.224;6.000;2023-07-13T01:34:11;1.90;;;0.60;;
10805;SDS011;5455;53.224;6.000;2023-07-13T01:36:38;1.07;;;0.30;;
10805;SDS011;5455;53.224;6.000;2023-07-13T01:39:06;1.90;;;0.50;;
10805;SDS011;5455;53.224;6.000;2023-07-13T01:41:34;2.70;;;0.40;;
10805;SDS011;5455;53.224;6.000;2023-07-13T01:44:01;2.83;;;0.47;;
10805;SDS011;5455;53.224;6.000;2023-07-13T01:46:30;1.07;;;0.57;;
10805;SDS011;5455;53.224;6.000;2023-07-13T01:48:57;3.00;;;0.50;;
10805;SDS011;5455;53.224;6.000;2023-07-13T01:51:24;2.20;;;0.80;;
10805;SDS011;5455;53.224;6.000;2023-07-13T01:53:51;2.33;;;0.70;;
10805;SDS011;5455;53.224;6.000;2023-07-13T01:56:18;2.57;;;1.00;;
10805;SDS011;5455;53.224;6.000;2023-07-13T01:58:46;3.17;;;0.80;;
10805;SDS011;5455;53.224;6.000;2023-07-13T02:01:13;4.67;;;1.10;;
10805;SDS011;5455;53.224;6.000;2023-07-13T02:03:40;1.00;;;0.70;;
10805;SDS011;5455;53.224;6.000;2023-07-13T02:06:07;2.83;;;0.77;;
10805;SDS011;5455;53.224;6.000;2023-07-13T02:08:35;1.23;;;0.80;;
10805;SDS011;5455;53.224;6.000;2023-07-13T02:11:02;3.50;;;0.73;;
10805;SDS011;5455;53.224;6.000;2023-07-13T02:13:30;5.73;;;0.93;;
10805;SDS011;5455;53.224;6.000;2023-07-13T02:15:57;3.20;;;0.70;;
10805;SDS011;5455;53.224;6.000;2023-07-13T02:18:24;3.17;;;0.50;;
10805;SDS011;5455;53.224;6.000;2023-07-13T02:20:51;4.03;;;0.60;;
10805;SDS011;5455;53.224;6.000;2023-07-13T02:23:18;5.53;;;0.80;;
10805;SDS011;5455;53.224;6.000;2023-07-13T02:25:45;3.97;;;0.90;;
10805;SDS011;5455;53.224;6.000;2023-07-13T02:28:14;1.00;;;0.40;;
10805;SDS011;5455;53.224;6.000;2023-07-13T02:30:42;1.43;;;0.60;;
10805;SDS011;5455;53.224;6.000;2023-07-13T02:33:09;1.50;;;0.60;;
10805;SDS011;5455;53.224;6.000;2023-07-13T02:35:36;3.80;;;0.60;;
10805;SDS011;5455;53.224;6.000;2023-07-13T02:38:03;2.73;;;0.73;;
10805;SDS011;5455;53.224;6.000;2023-07-13T02:40:30;4.00;;;0.70;;
10805;SDS011;5455;53.224;6.000;2023-07-13T02:42:59;1.40;;;0.70;;
10805;SDS011;5455;53.224;6.000;2023-07-13T02:45:26;2.57;;;0.70;;
10805;SDS011;5455;53.224;6.000;2023-07-13T02:47:54;4.07;;;0.73;;
10805;SDS011;5455;53.224;6.000;2023-07-13T02:50:21;2.80;;;0.87;;
10805;SDS011;5455;53.224;6.000;2023-07-13T02:52:48;3.10;;;0.70;;
10805;SDS011;5455;53.224;6.000;2023-07-13T02:55:15;4.73;;;0.90;;
10805;SDS011;5455;53.224;6.000;2023-07-13T02:57:43;4.10;;;0.90;;
10805;SDS011;5455;53.224;6.000;2023-07-13T03:00:10;3.20;;;0.90;;
10805;SDS011;5455;53.224;6.000;2023-07-13T03:02:37;3.10;;;0.93;;
10805;SDS011;5455;53.224;6.000;2023-07-13T03:05:04;4.33;;;1.40;;
10805;SDS011;5455;53.224;6.000;2023-07-13T03:07:32;6.93;;;1.53;;
10805;SDS011;5455;53.224;6.000;2023-07-13T03:09:59;3.13;;;0.80;;
10805;SDS011;5455;53.224;6.000;2023-07-13T03:12:36;5.63;;;1.30;;
10805;SDS011;5455;53.224;6.000;2023-07-13T03:15:06;5.27;;;0.90;;
10805;SDS011;5455;53.224;6.000;2023-07-13T03:17:37;2.23;;;1.10;;
10805;SDS011;5455;53.224;6.000;2023-07-13T03:20:05;3.17;;;0.87;;
10805;SDS011;5455;53.224;6.000;2023-07-13T03:22:33;3.90;;;1.40;;
10805;SDS011;5455;53.224;6.000;2023-07-13T03:25:00;5.63;;;1.67;;
10805;SDS011;5455;53.224;6.000;2023-07-13T03:27:27;4.60;;;1.70;;
10805;SDS011;5455;53.224;6.000;2023-07-13T03:29:54;5.80;;;1.13;;
10805;SDS011;5455;53.224;6.000;2023-07-13T03:32:22;6.00;;;1.10;;
10805;SDS011;5455;53.224;6.000;2023-07-13T03:34:49;2.97;;;0.90;;
10805;SDS011;5455;53.224;6.000;2023-07-13T03:37:16;4.33;;;1.20;;
10805;SDS011;5455;53.224;6.000;2023-07-13T03:39:43;2.90;;;1.00;;
10805;SDS011;5455;53.224;6.000;2023-07-13T03:42:11;2.97;;;1.03;;
10805;SDS011;5455;53.224;6.000;2023-07-13T03:44:39;4.73;;;1.47;;
10805;SDS011;5455;53.224;6.000;2023-07-13T03:47:07;6.77;;;1.37;;
10805;SDS011;5455;53.224;6.000;2023-07-13T03:49:35;4.30;;;1.20;;
10805;SDS011;5455;53.224;6.000;2023-07-13T03:52:02;6.10;;;1.43;;
10805;SDS011;5455;53.224;6.000;2023-07-13T03:54:29;4.40;;;1.40;;
10805;SDS011;5455;53.224;6.000;2023-07-13T03:56:56;5.10;;;1.80;;
10805;SDS011;5455;53.224;6.000;2023-07-13T03:59:23;3.80;;;1.20;;
10805;SDS011;5455;53.224;6.000;2023-07-13T04:01:51;4.33;;;1.53;;
10805;SDS011;5455;53.224;6.000;2023-07-13T04:04:18;5.13;;;1.30;;
10805;SDS011;5455;53.224;6.000;2023-07-13T04:06:45;2.87;;;1.30;;
10805;SDS011;5455;53.224;6.000;2023-07-13T04:09:12;6.20;;;1.53;;
10805;SDS011;5455;53.224;6.000;2023-07-13T04:11:39;3.43;;;1.10;;
10805;SDS011;5455;53.224;6.000;2023-07-13T04:14:06;7.27;;;1.67;;
10805;SDS011;5455;53.224;6.000;2023-07-13T04:16:33;4.73;;;1.43;;
10805;SDS011;5455;53.224;6.000;2023-07-13T04:19:01;4.90;;;1.20;;
10805;SDS011;5455;53.224;6.000;2023-07-13T04:21:29;4.80;;;1.17;;
10805;SDS011;5455;53.224;6.000;2023-07-13T04:23:57;5.83;;;1.53;;
10805;SDS011;5455;53.224;6.000;2023-07-13T04:26:24;5.13;;;1.57;;
10805;SDS011;5455;53.224;6.000;2023-07-13T04:28:52;5.03;;;1.37;;
10805;SDS011;5455;53.224;6.000;2023-07-13T04:31:19;6.50;;;1.60;;
10805;SDS011;5455;53.224;6.000;2023-07-13T04:33:47;3.70;;;1.23;;
10805;SDS011;5455;53.224;6.000;2023-07-13T04:36:16;7.77;;;1.80;;
10805;SDS011;5455;53.224;6.000;2023-07-13T04:38:43;7.53;;;2.00;;
10805;SDS011;5455;53.224;6.000;2023-07-13T04:41:10;4.50;;;1.30;;
10805;SDS011;5455;53.224;6.000;2023-07-13T04:43:41;6.80;;;1.67;;
10805;SDS011;5455;53.224;6.000;2023-07-13T04:46:09;6.40;;;2.17;;
10805;SDS011;5455;53.224;6.000;2023-07-13T04:48:39;4.07;;;1.63;;
10805;SDS011;5455;53.224;6.000;2023-07-13T04:51:06;4.73;;;1.33;;
10805;SDS011;5455;53.224;6.000;2023-07-13T04:53:33;2.87;;;1.43;;
10805;SDS011;5455;53.224;6.000;2023-07-13T04:56:01;4.60;;;1.50;;
10805;SDS011;5455;53.224;6.000;2023-07-13T04:58:29;4.97;;;2.07;;
10805;SDS011;5455;53.224;6.000;2023-07-13T05:01:00;6.77;;;1.53;;
10805;SDS011;5455;53.224;6.000;2023-07-13T05:03:28;4.37;;;1.60;;
10805;SDS011;5455;53.224;6.000;2023-07-13T05:06:00;4.53;;;1.60;;
10805;SDS011;5455;53.224;6.000;2023-07-13T05:08:31;4.83;;;1.43;;
10805;SDS011;5455;53.224;6.000;2023-07-13T05:11:02;3.57;;;1.30;;
10805;SDS011;5455;53.224;6.000;2023-07-13T05:13:30;6.77;;;1.40;;
10805;SDS011;5455;53.224;6.000;2023-07-13T05:15:58;3.97;;;1.57;;
10805;SDS011;5455;53.224;6.000;2023-07-13T05:18:27;3.20;;;1.70;;
10805;SDS011;5455;53.224;6.000;2023-07-13T05:20:58;4.77;;;1.50;;
10805;SDS011;5455;53.224;6.000;2023-07-13T05:23:30;3.60;;;1.60;;
10805;SDS011;5455;53.224;6.000;2023-07-13T05:25:58;4.00;;;1.43;;
10805;SDS011;5455;53.224;6.000;2023-07-13T05:28:25;5.20;;;1.47;;
10805;SDS011;5455;53.224;6.000;2023-07-13T05:30:54;3.33;;;1.70;;
10805;SDS011;5455;53.224;6.000;2023-07-13T05:33:22;3.40;;;1.40;;
10805;SDS011;5455;53.224;6.000;2023-07-13T05:35:51;4.67;;;1.27;;
10805;SDS011;5455;53.224;6.000;2023-07-13T05:38:18;4.17;;;1.23;;
10805;SDS011;5455;53.224;6.000;2023-07-13T05:40:45;4.93;;;1.47;;
10805;SDS011;5455;53.224;6.000;2023-07-13T05:43:12;4.87;;;1.00;;
10805;SDS011;5455;53.224;6.000;2023-07-13T05:45:40;5.73;;;1.40;;
10805;SDS011;5455;53.224;6.000;2023-07-13T05:48:07;4.63;;;1.20;;
10805;SDS011;5455;53.224;6.000;2023-07-13T05:50:35;3.33;;;1.30;;
10805;SDS011;5455;53.224;6.000;2023-07-13T05:53:02;5.83;;;1.00;;
10805;SDS011;5455;53.224;6.000;2023-07-13T05:55:29;5.17;;;1.40;;
10805;SDS011;5455;53.224;6.000;2023-07-13T05:57:56;9.60;;;1.50;;
10805;SDS011;5455;53.224;6.000;2023-07-13T06:00:24;5.70;;;1.20;;
10805;SDS011;5455;53.224;6.000;2023-07-13T06:02:52;4.87;;;1.40;;
10805;SDS011;5455;53.224;6.000;2023-07-13T06:05:19;3.20;;;1.20;;
10805;SDS011;5455;53.224;6.000;2023-07-13T06:07:46;4.60;;;1.23;;
10805;SDS011;5455;53.224;6.000;2023-07-13T06:10:13;1.73;;;0.70;;
10805;SDS011;5455;53.224;6.000;2023-07-13T06:12:40;2.67;;;0.73;;
10805;SDS011;5455;53.224;6.000;2023-07-13T06:15:07;2.83;;;0.90;;
10805;SDS011;5455;53.224;6.000;2023-07-13T06:17:34;3.50;;;1.20;;
10805;SDS011;5455;53.224;6.000;2023-07-13T06:20:01;3.90;;;1.23;;
10805;SDS011;5455;53.224;6.000;2023-07-13T06:22:28;3.17;;;0.90;;
10805;SDS011;5455;53.224;6.000;2023-07-13T06:24:56;4.00;;;1.00;;
10805;SDS011;5455;53.224;6.000;2023-07-13T06:27:23;2.90;;;0.80;;
10805;SDS011;5455;53.224;6.000;2023-07-13T06:29:50;4.17;;;0.83;;
10805;SDS011;5455;53.224;6.000;2023-07-13T06:32:16;4.90;;;1.10;;
10805;SDS011;5455;53.224;6.000;2023-07-13T06:34:43;1.73;;;0.83;;
10805;SDS011;5455;53.224;6.000;2023-07-13T06:37:11;2.20;;;1.17;;
10805;SDS011;5455;53.224;6.000;2023-07-13T06:39:38;1.30;;;0.60;;
10805;SDS011;5455;53.224;6.000;2023-07-13T06:42:05;4.73;;;1.03;;
10805;SDS011;5455;53.224;6.000;2023-07-13T06:44:32;2.53;;;0.90;;
10805;SDS011;5455;53.224;6.000;2023-07-13T06:46:59;4.53;;;0.90;;
10805;SDS011;5455;53.224;6.000;2023-07-13T06:49:26;4.30;;;0.90;;
10805;SDS011;5455;53.224;6.000;2023-07-13T06:51:53;4.00;;;0.83;;
10805;SDS011;5455;53.224;6.000;2023-07-13T06:54:21;3.30;;;0.93;;
10805;SDS011;5455;53.224;6.000;2023-07-13T06:56:48;3.40;;;1.07;;
10805;SDS011;5455;53.224;6.000;2023-07-13T06:59:15;3.23;;;1.00;;
10805;SDS011;5455;53.224;6.000;2023-07-13T07:01:42;1.27;;;0.50;;
10805;SDS011;5455;53.224;6.000;2023-07-13T07:04:08;1.47;;;0.70;;
10805;SDS011;5455;53.224;6.000;2023-07-13T07:06:36;1.37;;;0.70;;
10805;SDS011;5455;53.224;6.000;2023-07-13T07:09:03;3.30;;;0.90;;
10805;SDS011;5455;53.224;6.000;2023-07-13T07:11:29;1.20;;;0.70;;
10805;SDS011;5455;53.224;6.000;2023-07-13T07:13:56;4.00;;;0.70;;
10805;SDS011;5455;53.224;6.000;2023-07-13T07:16:24;2.17;;;0.73;;
10805;SDS011;5455;53.224;6.000;2023-07-13T07:18:51;1.67;;;0.50;;
10805;SDS011;5455;53.224;6.000;2023-07-13T07:21:18;0.80;;;0.50;;
10805;SDS011;5455;53.224;6.000;2023-07-13T07:23:45;1.23;;;0.50;;
10805;SDS011;5455;53.224;6.000;2023-07-13T07:26:12;2.70;;;0.60;;
10805;SDS011;5455;53.224;6.000;2023-07-13T07:28:39;3.73;;;0.90;;
10805;SDS011;5455;53.224;6.000;2023-07-13T07:31:11;4.27;;;0.63;;
10805;SDS011;5455;53.224;6.000;2023-07-13T07:33:41;1.50;;;0.60;;
10805;SDS011;5455;53.224;6.000;2023-07-13T07:36:09;1.83;;;0.70;;
10805;SDS011;5455;53.224;6.000;2023-07-13T07:38:41;2.43;;;0.60;;
10805;SDS011;5455;53.224;6.000;2023-07-13T07:41:08;2.40;;;0.63;;
10805;SDS011;5455;53.224;6.000;2023-07-13T07:43:38;3.13;;;0.60;;
10805;SDS011;5455;53.224;6.000;2023-07-13T07:46:05;7.93;;;1.00;;
10805;SDS011;5455;53.224;6.000;2023-07-13T07:48:33;2.10;;;0.80;;
10805;SDS011;5455;53.224;6.000;2023-07-13T07:51:00;2.77;;;0.70;;
10805;SDS011;5455;53.224;6.000;2023-07-13T07:53:27;2.80;;;0.87;;
10805;SDS011;5455;53.224;6.000;2023-07-13T07:55:56;4.53;;;1.83;;
10805;SDS011;5455;53.224;6.000;2023-07-13T07:58:43;0.77;;;0.67;;
10805;SDS011;5455;53.224;6.000;2023-07-13T08:01:13;2.50;;;0.90;;
10805;SDS011;5455;53.224;6.000;2023-07-13T08:03:43;2.47;;;0.90;;
10805;SDS011;5455;53.224;6.000;2023-07-13T08:06:13;4.07;;;0.93;;
10805;SDS011;5455;53.224;6.000;2023-07-13T08:09:00;3.20;;;1.10;;
10805;SDS011;5455;53.224;6.000;2023-07-13T08:11:29;3.60;;;1.30;;
10805;SDS011;5455;53.224;6.000;2023-07-13T08:13:58;1.80;;;0.83;;
10805;SDS011;5455;53.224;6.000;2023-07-13T08:16:25;3.90;;;1.20;;
10805;SDS011;5455;53.224;6.000;2023-07-13T08:18:53;2.43;;;0.90;;
10805;SDS011;5455;53.224;6.000;2023-07-13T08:21:19;2.17;;;1.13;;
10805;SDS011;5455;53.224;6.000;2023-07-13T08:23:46;12.43;;;1.50;;
10805;SDS011;5455;53.224;6.000;2023-07-13T08:26:13;2.50;;;0.90;;
10805;SDS011;5455;53.224;6.000;2023-07-13T08:28:42;2.00;;;1.00;;
10805;SDS011;5455;53.224;6.000;2023-07-13T08:31:09;1.90;;;1.07;;
10805;SDS011;5455;53.224;6.000;2023-07-13T08:33:37;5.17;;;1.17;;
10805;SDS011;5455;53.224;6.000;2023-07-13T08:36:04;3.33;;;0.93;;
10805;SDS011;5455;53.224;6.000;2023-07-13T08:38:32;3.73;;;1.03;;
10805;SDS011;5455;53.224;6.000;2023-07-13T08:40:59;1.97;;;0.90;;
10805;SDS011;5455;53.224;6.000;2023-07-13T08:43:36;3.00;;;0.80;;
10805;SDS011;5455;53.224;6.000;2023-07-13T08:48:36;3.97;;;1.10;;
10805;SDS011;5455;53.224;6.000;2023-07-13T08:51:30;2.93;;;0.80;;
10805;SDS011;5455;53.224;6.000;2023-07-13T08:54:03;4.87;;;1.07;;
10805;SDS011;5455;53.224;6.000;2023-07-13T08:56:36;2.00;;;0.90;;
10805;SDS011;5455;53.224;6.000;2023-07-13T08:59:11;4.23;;;0.73;;
10805;SDS011;5455;53.224;6.000;2023-07-13T09:04:30;2.17;;;1.10;;
10805;SDS011;5455;53.224;6.000;2023-07-13T09:09:48;2.90;;;0.77;;
10805;SDS011;5455;53.224;6.000;2023-07-13T09:15:01;4.20;;;0.67;;
10805;SDS011;5455;53.224;6.000;2023-07-13T09:17:40;2.37;;;0.60;;
10805;SDS011;5455;53.224;6.000;2023-07-13T09:23:17;2.77;;;0.87;;
10805;SDS011;5455;53.224;6.000;2023-07-13T09:25:47;1.07;;;0.50;;
10805;SDS011;5455;53.224;6.000;2023-07-13T09:28:28;1.33;;;0.70;;
10805;SDS011;5455;53.224;6.000;2023-07-13T09:33:50;2.50;;;0.90;;
10805;SDS011;5455;53.224;6.000;2023-07-13T09:36:18;2.20;;;0.60;;
10805;SDS011;5455;53.224;6.000;2023-07-13T09:38:45;1.73;;;0.80;;
10805;SDS011;5455;53.224;6.000;2023-07-13T09:41:23;1.33;;;0.70;;
10805;SDS011;5455;53.224;6.000;2023-07-13T09:46:39;0.93;;;0.53;;
10805;SDS011;5455;53.224;6.000;2023-07-13T09:49:10;1.73;;;0.60;;
10805;SDS011;5455;53.224;6.000;2023-07-13T09:51:39;2.43;;;0.60;;
10805;SDS011;5455;53.224;6.000;2023-07-13T09:54:21;0.43;;;0.40;;
10805;SDS011;5455;53.224;6.000;2023-07-13T09:56:58;4.87;;;1.40;;
10805;SDS011;5455;53.224;6.000;2023-07-13T09:59:30;4.40;;;0.80;;
10805;SDS011;5455;53.224;6.000;2023-07-13T10:01:59;1.23;;;0.47;;
10805;SDS011;5455;53.224;6.000;2023-07-13T10:04:33;1.40;;;0.73;;
10805;SDS011;5455;53.224;6.000;2023-07-13T10:07:11;2.50;;;0.47;;
10805;SDS011;5455;53.224;6.000;2023-07-13T10:09:56;1.97;;;0.47;;
10805;SDS011;5455;53.224;6.000;2023-07-13T10:12:24;2.10;;;0.30;;
10805;SDS011;5455;53.224;6.000;2023-07-13T10:14:55;1.00;;;0.50;;
10805;SDS011;5455;53.224;6.000;2023-07-13T10:17:42;2.47;;;0.73;;
10805;SDS011;5455;53.224;6.000;2023-07-13T10:20:11;2.70;;;0.80;;
10805;SDS011;5455;53.224;6.000;2023-07-13T10:22:47;1.93;;;0.87;;
10805;SDS011;5455;53.224;6.000;2023-07-13T10:25:21;3.23;;;0.90;;
10805;SDS011;5455;53.224;6.000;2023-07-13T10:27:52;1.03;;;0.50;;
10805;SDS011;5455;53.224;6.000;2023-07-13T10:33:00;2.60;;;0.60;;
10805;SDS011;5455;53.224;6.000;2023-07-13T10:35:30;2.17;;;0.60;;
10805;SDS011;5455;53.224;6.000;2023-07-13T10:40:56;1.90;;;0.70;;
10805;SDS011;5455;53.224;6.000;2023-07-13T10:43:27;3.23;;;0.67;;
10805;SDS011;5455;53.224;6.000;2023-07-13T10:46:00;1.70;;;0.70;;
10805;SDS011;5455;53.224;6.000;2023-07-13T10:48:29;1.00;;;0.50;;
10805;SDS011;5455;53.224;6.000;2023-07-13T10:50:58;4.63;;;0.83;;
10805;SDS011;5455;53.224;6.000;2023-07-13T10:53:45;1.70;;;0.83;;
10805;SDS011;5455;53.224;6.000;2023-07-13T10:56:24;4.53;;;0.83;;
10805;SDS011;5455;53.224;6.000;2023-07-13T10:59:02;2.17;;;0.73;;
10805;SDS011;5455;53.224;6.000;2023-07-13T11:01:46;1.60;;;0.93;;
10805;SDS011;5455;53.224;6.000;2023-07-13T11:04:20;2.77;;;0.80;;
10805;SDS011;5455;53.224;6.000;2023-07-13T11:06:48;2.27;;;0.70;;
10805;SDS011;5455;53.224;6.000;2023-07-13T11:11:45;3.30;;;0.80;;
10805;SDS011;5455;53.224;6.000;2023-07-13T11:22:45;2.93;;;0.87;;
10805;SDS011;5455;53.224;6.000;2023-07-13T11:30:43;3.07;;;0.70;;
10805;SDS011;5455;53.224;6.000;2023-07-13T11:33:31;1.83;;;0.87;;
10805;SDS011;5455;53.224;6.000;2023-07-13T11:36:17;1.87;;;1.10;;
10805;SDS011;5455;53.224;6.000;2023-07-13T11:38:55;4.03;;;0.87;;
10805;SDS011;5455;53.224;6.000;2023-07-13T11:41:34;2.50;;;0.70;;
10805;SDS011;5455;53.224;6.000;2023-07-13T11:44:06;3.60;;;1.10;;
10805;SDS011;5455;53.224;6.000;2023-07-13T11:46:34;3.93;;;0.70;;
10805;SDS011;5455;53.224;6.000;2023-07-13T11:49:01;1.80;;;0.57;;
10805;SDS011;5455;53.224;6.000;2023-07-13T11:51:33;5.03;;;0.90;;
10805;SDS011;5455;53.224;6.000;2023-07-13T11:54:06;1.90;;;0.60;;
10805;SDS011;5455;53.224;6.000;2023-07-13T11:56:43;0.80;;;0.57;;
10805;SDS011;5455;53.224;6.000;2023-07-13T11:59:10;1.33;;;0.80;;
10805;SDS011;5455;53.224;6.000;2023-07-13T12:01:44;1.57;;;0.90;;
10805;SDS011;5455;53.224;6.000;2023-07-13T12:04:25;4.63;;;1.10;;
10805;SDS011;5455;53.224;6.000;2023-07-13T12:07:03;3.53;;;1.33;;
10805;SDS011;5455;53.224;6.000;2023-07-13T12:09:33;2.37;;;0.90;;
10805;SDS011;5455;53.224;6.000;2023-07-13T12:12:00;5.20;;;1.23;;
10805;SDS011;5455;53.224;6.000;2023-07-13T12:14:27;5.90;;;1.33;;
10805;SDS011;5455;53.224;6.000;2023-07-13T12:16:55;6.03;;;1.57;;
10805;SDS011;5455;53.224;6.000;2023-07-13T12:19:23;4.93;;;1.43;;
10805;SDS011;5455;53.224;6.000;2023-07-13T12:21:54;4.73;;;1.40;;
10805;SDS011;5455;53.224;6.000;2023-07-13T12:24:24;5.37;;;1.40;;
10805;SDS011;5455;53.224;6.000;2023-07-13T12:26:53;5.23;;;1.60;;
10805;SDS011;5455;53.224;6.000;2023-07-13T12:29:31;5.87;;;2.50;;
10805;SDS011;5455;53.224;6.000;2023-07-13T12:31:59;5.33;;;1.67;;
10805;SDS011;5455;53.224;6.000;2023-07-13T12:34:26;5.67;;;1.40;;
10805;SDS011;5455;53.224;6.000;2023-07-13T12:37:01;1.87;;;1.10;;
10805;SDS011;5455;53.224;6.000;2023-07-13T12:39:36;6.63;;;1.47;;
10805;SDS011;5455;53.224;6.000;2023-07-13T12:44:43;5.30;;;1.40;;
10805;SDS011;5455;53.224;6.000;2023-07-13T12:47:11;3.40;;;1.03;;
10805;SDS011;5455;53.224;6.000;2023-07-13T12:49:42;2.60;;;1.30;;
10805;SDS011;5455;53.224;6.000;2023-07-13T12:52:24;4.33;;;0.93;;
10805;SDS011;5455;53.224;6.000;2023-07-13T12:55:12;3.37;;;1.00;;
10805;SDS011;5455;53.224;6.000;2023-07-13T13:03:34;3.03;;;0.90;;
10805;SDS011;5455;53.224;6.000;2023-07-13T13:08:47;2.43;;;1.10;;
10805;SDS011;5455;53.224;6.000;2023-07-13T13:11:17;4.23;;;1.40;;
10805;SDS011;5455;53.224;6.000;2023-07-13T13:13:45;4.43;;;1.20;;
10805;SDS011;5455;53.224;6.000;2023-07-13T13:18:55;3.70;;;1.17;;
10805;SDS011;5455;53.224;6.000;2023-07-13T13:21:24;4.80;;;0.90;;
10805;SDS011;5455;53.224;6.000;2023-07-13T13:23:52;2.40;;;1.00;;
10805;SDS011;5455;53.224;6.000;2023-07-13T13:26:21;2.37;;;1.00;;
10805;SDS011;5455;53.224;6.000;2023-07-13T13:28:53;6.63;;;2.13;;
10805;SDS011;5455;53.224;6.000;2023-07-13T13:31:26;5.40;;;1.73;;
10805;SDS011;5455;53.224;6.000;2023-07-13T13:33:53;4.77;;;1.00;;
10805;SDS011;5455;53.224;6.000;2023-07-13T13:36:22;2.60;;;0.90;;
10805;SDS011;5455;53.224;6.000;2023-07-13T13:38:50;3.97;;;1.10;;
10805;SDS011;5455;53.224;6.000;2023-07-13T13:41:33;3.53;;;1.10;;
10805;SDS011;5455;53.224;6.000;2023-07-13T13:44:00;1.47;;;0.77;;
10805;SDS011;5455;53.224;6.000;2023-07-13T13:46:31;5.63;;;1.10;;
10805;SDS011;5455;53.224;6.000;2023-07-13T13:49:16;2.03;;;0.87;;
10805;SDS011;5455;53.224;6.000;2023-07-13T13:51:52;4.13;;;1.17;;
10805;SDS011;5455;53.224;6.000;2023-07-13T13:54:23;3.57;;;1.20;;
10805;SDS011;5455;53.224;6.000;2023-07-13T13:57:09;5.60;;;1.07;;
10805;SDS011;5455;53.224;6.000;2023-07-13T13:59:39;4.80;;;0.93;;
10805;SDS011;5455;53.224;6.000;2023-07-13T14:04:57;4.33;;;1.30;;
10805;SDS011;5455;53.224;6.000;2023-07-13T14:07:26;2.33;;;1.40;;
10805;SDS011;5455;53.224;6.000;2023-07-13T14:09:55;4.10;;;1.03;;
10805;SDS011;5455;53.224;6.000;2023-07-13T14:12:24;5.87;;;1.20;;
10805;SDS011;5455;53.224;6.000;2023-07-13T14:14:55;3.40;;;1.30;;
10805;SDS011;5455;53.224;6.000;2023-07-13T14:17:26;1.60;;;1.00;;
10805;SDS011;5455;53.224;6.000;2023-07-13T14:19:54;3.50;;;1.17;;
10805;SDS011;5455;53.224;6.000;2023-07-13T14:22:26;5.77;;;1.13;;
10805;SDS011;5455;53.224;6.000;2023-07-13T14:24:53;3.00;;;1.23;;
10805;SDS011;5455;53.224;6.000;2023-07-13T14:27:22;3.00;;;1.03;;
10805;SDS011;5455;53.224;6.000;2023-07-13T14:29:49;2.57;;;1.20;;
10805;SDS011;5455;53.224;6.000;2023-07-13T14:32:16;4.70;;;1.60;;
10805;SDS011;5455;53.224;6.000;2023-07-13T14:34:43;4.03;;;1.10;;
10805;SDS011;5455;53.224;6.000;2023-07-13T14:37:14;4.17;;;1.17;;
10805;SDS011;5455;53.224;6.000;2023-07-13T14:39:43;4.70;;;1.53;;
10805;SDS011;5455;53.224;6.000;2023-07-13T14:42:11;2.67;;;1.10;;
10805;SDS011;5455;53.224;6.000;2023-07-13T14:44:39;2.60;;;1.10;;
10805;SDS011;5455;53.224;6.000;2023-07-13T14:47:07;1.50;;;1.07;;
10805;SDS011;5455;53.224;6.000;2023-07-13T14:49:36;3.40;;;1.17;;
10805;SDS011;5455;53.224;6.000;2023-07-13T14:52:18;6.37;;;1.33;;
10805;SDS011;5455;53.224;6.000;2023-07-13T14:54:47;4.43;;;1.10;;
10805;SDS011;5455;53.224;6.000;2023-07-13T14:57:15;4.70;;;1.50;;
10805;SDS011;5455;53.224;6.000;2023-07-13T14:59:43;6.47;;;1.20;;
10805;SDS011;5455;53.224;6.000;2023-07-13T15:02:15;7.57;;;1.30;;
10805;SDS011;5455;53.224;6.000;2023-07-13T15:04:45;3.83;;;1.30;;
10805;SDS011;5455;53.224;6.000;2023-07-13T15:07:12;3.90;;;0.93;;
10805;SDS011;5455;53.224;6.000;2023-07-13T15:09:42;2.13;;;1.23;;
10805;SDS011;5455;53.224;6.000;2023-07-13T15:12:09;4.97;;;1.50;;
10805;SDS011;5455;53.224;6.000;2023-07-13T15:14:36;7.07;;;1.60;;
10805;SDS011;5455;53.224;6.000;2023-07-13T15:17:03;5.73;;;1.33;;
10805;SDS011;5455;53.224;6.000;2023-07-13T15:19:30;3.40;;;1.10;;
10805;SDS011;5455;53.224;6.000;2023-07-13T15:21:58;6.20;;;1.37;;
10805;SDS011;5455;53.224;6.000;2023-07-13T15:24:25;5.33;;;1.40;;
10805;SDS011;5455;53.224;6.000;2023-07-13T15:26:53;6.93;;;1.80;;
10805;SDS011;5455;53.224;6.000;2023-07-13T15:29:21;4.90;;;1.33;;
10805;SDS011;5455;53.224;6.000;2023-07-13T15:31:49;2.13;;;1.23;;
10805;SDS011;5455;53.224;6.000;2023-07-13T15:34:18;4.27;;;1.70;;
10805;SDS011;5455;53.224;6.000;2023-07-13T15:36:51;2.33;;;1.37;;
10805;SDS011;5455;53.224;6.000;2023-07-13T15:39:22;5.73;;;2.00;;
10805;SDS011;5455;53.224;6.000;2023-07-13T15:41:50;2.77;;;1.20;;
10805;SDS011;5455;53.224;6.000;2023-07-13T15:46:51;3.57;;;1.50;;
10805;SDS011;5455;53.224;6.000;2023-07-13T15:49:18;4.87;;;1.77;;
10805;SDS011;5455;53.224;6.000;2023-07-13T15:51:45;8.97;;;1.70;;
10805;SDS011;5455;53.224;6.000;2023-07-13T15:54:14;3.17;;;1.30;;
10805;SDS011;5455;53.224;6.000;2023-07-13T15:56:42;4.87;;;1.40;;
10805;SDS011;5455;53.224;6.000;2023-07-13T15:59:11;2.03;;;1.20;;
10805;SDS011;5455;53.224;6.000;2023-07-13T16:01:39;7.40;;;1.43;;
10805;SDS011;5455;53.224;6.000;2023-07-13T16:04:08;3.07;;;1.53;;
10805;SDS011;5455;53.224;6.000;2023-07-13T16:06:36;3.80;;;1.40;;
10805;SDS011;5455;53.224;6.000;2023-07-13T16:09:10;3.43;;;1.30;;
10805;SDS011;5455;53.224;6.000;2023-07-13T16:11:43;3.60;;;1.60;;
10805;SDS011;5455;53.224;6.000;2023-07-13T16:14:12;3.97;;;1.13;;
10805;SDS011;5455;53.224;6.000;2023-07-13T16:16:40;5.97;;;1.33;;
10805;SDS011;5455;53.224;6.000;2023-07-13T16:19:08;4.90;;;1.30;;